Time;durP1;ratioP1;P1;durP2;ratioP2;P2;SDS_P1;SDS_P2;PMS_P1;PMS_P2;Temp;Humidity;BMP_temperature;BMP_pressure;BME280_temperature;BME280_humidity;BME280_pressure;Samples;Min_cycle;Max_cycle;Signal;HPM_P1;HPM_P2
2023/03/08 00:02:17;;;;;;;;;;;6.90;87.90;;;;;;5054846;28;19941;-89
2023/03/08 00:04:43;;;;;;;;;;;6.90;87.70;;;;;;5054675;28;19976;-90
2023/03/08 00:07:08;;;;;;;;;;;6.90;87.90;;;;;;5054799;28;19939;-91
2023/03/08 00:09:35;;;;;;;;;;;6.90;87.80;;;;;;5054841;28;19938;-91
2023/03/08 00:12:01;;;;;;;;;;;6.80;87.80;;;;;;5054789;28;20004;-90
2023/03/08 00:14:26;;;;;;;;;;;6.90;88.10;;;;;;5054703;28;20398;-89
2023/03/08 00:16:52;;;;;;;;;;;6.80;88.20;;;;;;5054689;28;19938;-90
2023/03/08 00:19:17;;;;;;;;;;;6.90;88.30;;;;;;5054498;28;19963;-91
2023/03/08 00:21:43;;;;;;;;;;;6.80;88.20;;;;;;5037914;28;19955;-90
2023/03/08 00:24:10;;;;;;;;;;;6.60;87.00;;;;;;5034518;28;19940;-90
2023/03/08 00:26:35;;;;;;;;;;;6.50;87.20;;;;;;5034519;28;19947;-90
2023/03/08 00:29:01;;;;;;;;;;;6.50;88.10;;;;;;5034497;28;20047;-89
2023/03/08 00:31:26;;;;;;;;;;;6.40;88.10;;;;;;5034423;28;20428;-90
2023/03/08 00:33:53;;;;;;;;;;;6.40;88.20;;;;;;5034327;28;20020;-90
2023/03/08 00:36:19;;;;;;;;;;;6.20;87.70;;;;;;5034366;28;19960;-90
2023/03/08 00:38:45;;;;;;;;;;;6.00;87.50;;;;;;5034192;28;20424;-90
2023/03/08 00:41:11;;;;;;;;;;;5.90;88.20;;;;;;5034252;28;20050;-89
2023/03/08 00:43:37;;;;;;;;;;;5.80;89.00;;;;;;5034170;28;19970;-90
2023/03/08 00:46:03;;;;;;;;;;;5.60;89.50;;;;;;5033437;28;19969;-90
2023/03/08 00:48:28;;;;;;;;;;;5.60;89.90;;;;;;5034118;28;19950;-90
2023/03/08 00:50:54;;;;;;;;;;;5.60;90.50;;;;;;5043250;28;20291;-90
2023/03/08 00:53:19;;;;;;;;;;;5.60;90.70;;;;;;5053855;28;20482;-89
2023/03/08 00:55:49;;;;;;;;;;;5.50;90.80;;;;;;5053869;28;20312;-89
2023/03/08 00:58:14;;;;;;;;;;;5.50;90.80;;;;;;5052506;28;20220;-89
2023/03/08 01:00:40;;;;;;;;;;;5.50;90.80;;;;;;5053688;28;20029;-89
2023/03/08 01:03:06;;;;;;;;;;;5.60;90.70;;;;;;5053514;28;19975;-89
2023/03/08 01:05:31;;;;;;;;;;;5.50;89.90;;;;;;5053670;28;19983;-90
2023/03/08 01:07:57;;;;;;;;;;;5.50;90.40;;;;;;5053657;28;19943;-91
2023/03/08 01:10:22;;;;;;;;;;;5.50;89.60;;;;;;5053646;28;20039;-90
2023/03/08 01:12:48;;;;;;;;;;;5.40;89.10;;;;;;5053568;28;19969;-90
2023/03/08 01:15:13;;;;;;;;;;;5.50;89.70;;;;;;5053554;28;20390;-90
2023/03/08 01:17:39;;;;;;;;;;;5.60;90.60;;;;;;5053522;28;19947;-91
2023/03/08 01:20:06;;;;;;;;;;;5.60;90.70;;;;;;5048213;28;20115;-90
2023/03/08 01:22:31;;;;;;;;;;;5.40;89.30;;;;;;5033472;28;20461;-90
2023/03/08 01:24:57;;;;;;;;;;;5.30;89.10;;;;;;5033478;28;20028;-90
2023/03/08 01:27:22;;;;;;;;;;;5.30;90.60;;;;;;5033460;28;19934;-90
2023/03/08 01:29:48;;;;;;;;;;;5.30;91.10;;;;;;5033366;28;19997;-89
2023/03/08 01:32:13;;;;;;;;;;;5.30;91.60;;;;;;5033351;28;19952;-89
2023/03/08 01:34:39;;;;;;;;;;;5.30;91.80;;;;;;5033302;28;19940;-89
2023/03/08 01:37:04;;;;;;;;;;;5.40;92.20;;;;;;5033286;28;19950;-89
2023/03/08 01:39:30;;;;;;;;;;;5.40;92.00;;;;;;5033226;28;20010;-89
2023/03/08 01:41:56;;;;;;;;;;;5.20;91.60;;;;;;5033486;28;19985;-89
2023/03/08 01:44:21;;;;;;;;;;;5.40;92.30;;;;;;5033249;28;19992;-89
2023/03/08 01:46:47;;;;;;;;;;;5.40;92.80;;;;;;5033225;28;19951;-89
2023/03/08 01:49:16;;;;;;;;;;;5.50;92.80;;;;;;5033429;28;20344;-90
2023/03/08 01:51:43;;;;;;;;;;;5.40;92.80;;;;;;5050794;28;20036;-89
2023/03/08 01:54:11;;;;;;;;;;;5.40;92.50;;;;;;5052967;28;19954;-89
2023/03/08 01:56:37;;;;;;;;;;;5.20;91.40;;;;;;5052902;28;20009;-90
2023/03/08 01:59:03;;;;;;;;;;;5.10;91.00;;;;;;5052882;28;19958;-89
2023/03/08 02:01:29;;;;;;;;;;;5.10;91.20;;;;;;5052824;28;19943;-89
2023/03/08 02:03:55;;;;;;;;;;;5.10;91.40;;;;;;5052750;28;19983;-89
2023/03/08 02:06:20;;;;;;;;;;;5.10;91.70;;;;;;5052914;28;20386;-90
2023/03/08 02:08:47;;;;;;;;;;;5.20;92.30;;;;;;5052869;28;19939;-90
2023/03/08 02:11:13;;;;;;;;;;;5.20;92.40;;;;;;5051596;28;19981;-90
2023/03/08 02:13:38;;;;;;;;;;;5.10;92.50;;;;;;5052887;28;19984;-89
2023/03/08 02:16:06;;;;;;;;;;;4.90;92.00;;;;;;5052844;28;19945;-90
2023/03/08 02:18:32;;;;;;;;;;;4.70;91.20;;;;;;5052960;28;19959;-90
2023/03/08 02:20:58;;;;;;;;;;;4.50;90.80;;;;;;5038290;28;19952;-89
2023/03/08 02:23:24;;;;;;;;;;;4.50;91.20;;;;;;5015023;28;20013;-89
2023/03/08 02:25:56;;;;;;;;;;;4.50;91.70;;;;;;5033065;28;19940;-90
2023/03/08 02:28:22;;;;;;;;;;;4.40;92.00;;;;;;5032754;28;19937;-89
2023/03/08 02:30:48;;;;;;;;;;;4.40;93.00;;;;;;5032748;28;19946;-89
2023/03/08 02:33:15;;;;;;;;;;;4.40;93.30;;;;;;5033015;28;19941;-88
2023/03/08 02:35:42;;;;;;;;;;;4.50;93.50;;;;;;5033017;28;19940;-89
2023/03/08 02:38:12;;;;;;;;;;;4.70;93.80;;;;;;5032574;28;19945;-89
2023/03/08 02:40:37;;;;;;;;;;;4.70;93.20;;;;;;5032683;28;20028;-88
2023/03/08 02:43:03;;;;;;;;;;;4.70;92.80;;;;;;5032663;28;20013;-89
2023/03/08 02:45:29;;;;;;;;;;;4.60;92.60;;;;;;5032605;28;20192;-89
2023/03/08 02:47:55;;;;;;;;;;;4.70;92.60;;;;;;5032596;28;19942;-89
2023/03/08 02:50:20;;;;;;;;;;;4.60;92.50;;;;;;5040958;28;20011;-88
2023/03/08 02:52:46;;;;;;;;;;;4.60;92.80;;;;;;5050960;28;20028;-89
2023/03/08 02:55:11;;;;;;;;;;;4.50;92.30;;;;;;5052416;28;19975;-88
2023/03/08 02:57:37;;;;;;;;;;;4.40;92.00;;;;;;5052411;28;19983;-88
2023/03/08 03:00:03;;;;;;;;;;;4.30;91.80;;;;;;5051874;28;20056;-89
2023/03/08 03:02:30;;;;;;;;;;;4.10;91.90;;;;;;5052289;28;19940;-89
2023/03/08 03:04:56;;;;;;;;;;;4.20;92.60;;;;;;5052130;28;20084;-88
2023/03/08 03:07:21;;;;;;;;;;;4.30;92.70;;;;;;5052346;28;20027;-89
2023/03/08 03:09:47;;;;;;;;;;;4.30;92.60;;;;;;5054571;28;20408;-89
2023/03/08 03:12:12;;;;;;;;;;;4.20;92.50;;;;;;5055901;28;19943;-89
2023/03/08 03:14:38;;;;;;;;;;;4.20;92.20;;;;;;5055797;28;19941;-89
2023/03/08 03:17:03;;;;;;;;;;;4.10;92.10;;;;;;5055793;28;19941;-89
2023/03/08 03:19:29;;;;;;;;;;;4.00;91.90;;;;;;5038836;28;20356;-88
2023/03/08 03:21:54;;;;;;;;;;;4.00;91.10;;;;;;5055698;28;20400;-89
2023/03/08 03:24:20;;;;;;;;;;;4.00;90.90;;;;;;5055641;28;19938;-90
2023/03/08 03:26:48;;;;;;;;;;;4.30;91.90;;;;;;5055590;28;20345;-88
2023/03/08 03:29:13;;;;;;;;;;;4.40;91.70;;;;;;5055524;28;19957;-90
2023/03/08 03:31:39;;;;;;;;;;;4.20;91.20;;;;;;5055498;28;20352;-89
2023/03/08 03:34:04;;;;;;;;;;;4.20;90.90;;;;;;5055514;28;19946;-89
2023/03/08 03:36:30;;;;;;;;;;;4.00;89.80;;;;;;5055427;28;19938;-89
2023/03/08 03:38:57;;;;;;;;;;;3.90;90.10;;;;;;5054006;28;19961;-89
2023/03/08 03:41:22;;;;;;;;;;;3.90;90.90;;;;;;5055330;28;20359;-89
2023/03/08 03:43:48;;;;;;;;;;;3.90;91.60;;;;;;5055329;28;19988;-89
2023/03/08 03:46:15;;;;;;;;;;;3.90;91.40;;;;;;5055531;28;19944;-89
2023/03/08 03:48:40;;;;;;;;;;;3.90;91.70;;;;;;5055262;28;19945;-88
2023/03/08 03:51:08;;;;;;;;;;;4.10;92.20;;;;;;5036566;28;19947;-88
2023/03/08 03:53:34;;;;;;;;;;;4.20;92.60;;;;;;5035154;28;19960;-88
2023/03/08 03:56:07;;;;;;;;;;;4.40;93.20;;;;;;5035178;28;19946;-89
2023/03/08 03:58:33;;;;;;;;;;;4.10;92.00;;;;;;5035083;28;19963;-88
2023/03/08 04:00:58;;;;;;;;;;;3.70;90.20;;;;;;5034957;28;19938;-88
2023/03/08 04:03:24;;;;;;;;;;;3.50;89.20;;;;;;5034896;28;20041;-89
2023/03/08 04:05:50;;;;;;;;;;;3.30;90.00;;;;;;5035016;28;19987;-89
2023/03/08 04:08:15;;;;;;;;;;;3.10;89.20;;;;;;5034940;28;19950;-89
2023/03/08 04:10:41;;;;;;;;;;;3.00;89.50;;;;;;5034874;28;19937;-89
2023/03/08 04:13:06;;;;;;;;;;;3.10;90.90;;;;;;5034886;28;19945;-90
2023/03/08 04:15:32;;;;;;;;;;;3.00;91.20;;;;;;5034813;28;19937;-89
2023/03/08 04:17:57;;;;;;;;;;;3.10;91.30;;;;;;5034740;28;19942;-90
2023/03/08 04:20:23;;;;;;;;;;;3.10;91.10;;;;;;5047241;28;20379;-89
2023/03/08 04:22:49;;;;;;;;;;;3.10;91.70;;;;;;5054685;28;19945;-89
2023/03/08 04:25:14;;;;;;;;;;;3.20;92.00;;;;;;5054577;28;19942;-90
2023/03/08 04:27:40;;;;;;;;;;;3.30;92.40;;;;;;5054491;28;20389;-90
2023/03/08 04:30:06;;;;;;;;;;;3.40;93.00;;;;;;5054466;28;19979;-88
2023/03/08 04:32:31;;;;;;;;;;;3.50;93.20;;;;;;5054439;28;20025;-89
2023/03/08 04:34:57;;;;;;;;;;;3.50;93.30;;;;;;5054373;28;20415;-88
2023/03/08 04:37:23;;;;;;;;;;;3.60;93.20;;;;;;5054307;28;19940;-89
2023/03/08 04:39:49;;;;;;;;;;;3.60;92.60;;;;;;5052887;28;20472;-88
2023/03/08 04:42:14;;;;;;;;;;;3.90;92.80;;;;;;5054201;28;19936;-88
2023/03/08 04:44:40;;;;;;;;;;;3.90;92.40;;;;;;5054143;28;19938;-88
2023/03/08 04:47:05;;;;;;;;;;;3.80;91.70;;;;;;5054080;28;19954;-89
2023/03/08 04:49:31;;;;;;;;;;;3.70;91.20;;;;;;5047482;28;19976;-88
2023/03/08 04:51:56;;;;;;;;;;;3.60;91.30;;;;;;5034087;28;20422;-89
2023/03/08 04:54:22;;;;;;;;;;;3.50;91.40;;;;;;5033959;28;20411;-88
2023/03/08 04:56:47;;;;;;;;;;;3.40;90.70;;;;;;5034162;28;19983;-89
2023/03/08 04:59:13;;;;;;;;;;;3.40;90.70;;;;;;5053847;28;20020;-89
2023/03/08 05:01:38;;;;;;;;;;;3.40;90.60;;;;;;5053974;28;20308;-89
2023/03/08 05:04:04;;;;;;;;;;;3.40;90.80;;;;;;5053835;28;20062;-88
2023/03/08 05:06:29;;;;;;;;;;;3.50;91.20;;;;;;5053722;28;20003;-89
2023/03/08 05:08:55;;;;;;;;;;;3.50;91.20;;;;;;5053706;28;20554;-89
2023/03/08 05:11:22;;;;;;;;;;;3.40;91.10;;;;;;5053491;28;20410;-88
2023/03/08 05:13:48;;;;;;;;;;;3.40;90.90;;;;;;5053492;28;19988;-88
2023/03/08 05:16:14;;;;;;;;;;;3.30;90.20;;;;;;5053564;28;19972;-89
2023/03/08 05:18:39;;;;;;;;;;;3.20;90.40;;;;;;5053501;28;20058;-88
2023/03/08 05:21:06;;;;;;;;;;;3.30;91.60;;;;;;5053510;28;19965;-88
2023/03/08 05:23:32;;;;;;;;;;;3.40;91.80;;;;;;5053428;28;19937;-89
2023/03/08 05:25:59;;;;;;;;;;;3.50;92.50;;;;;;5053370;28;20302;-89
2023/03/08 05:28:25;;;;;;;;;;;3.50;92.30;;;;;;5040422;28;20326;-89
2023/03/08 05:31:01;;;;;;;;;;;3.60;91.80;;;;;;5033400;28;19939;-89
2023/03/08 05:33:26;;;;;;;;;;;3.60;91.70;;;;;;5033412;28;19943;-89
2023/03/08 05:35:53;;;;;;;;;;;3.60;92.50;;;;;;5033391;28;20404;-89
2023/03/08 05:38:19;;;;;;;;;;;3.60;92.30;;;;;;5033288;28;19946;-89
2023/03/08 05:40:44;;;;;;;;;;;3.50;91.70;;;;;;5033289;28;19947;-89
2023/03/08 05:43:10;;;;;;;;;;;3.60;91.30;;;;;;5033191;28;19940;-90
2023/03/08 05:45:35;;;;;;;;;;;3.50;91.20;;;;;;5033210;28;19949;-89
2023/03/08 05:48:01;;;;;;;;;;;3.30;90.60;;;;;;5033211;28;19949;-90
2023/03/08 05:50:26;;;;;;;;;;;3.30;91.10;;;;;;5026373;28;20385;-90
2023/03/08 05:52:52;;;;;;;;;;;3.20;93.40;;;;;;5032834;28;20323;-89
2023/03/08 05:55:17;;;;;;;;;;;3.30;92.60;;;;;;5032917;28;20224;-89
2023/03/08 05:57:43;;;;;;;;;;;3.50;92.50;;;;;;5033111;28;20391;-89
2023/03/08 06:00:09;;;;;;;;;;;3.70;92.30;;;;;;5032857;28;19956;-89
2023/03/08 06:02:34;;;;;;;;;;;3.70;91.80;;;;;;5033035;28;19983;-89
2023/03/08 06:05:00;;;;;;;;;;;3.70;91.30;;;;;;5032751;28;20113;-89
2023/03/08 06:07:25;;;;;;;;;;;3.70;91.20;;;;;;5032947;28;20073;-90
2023/03/08 06:09:51;;;;;;;;;;;3.70;91.20;;;;;;5032887;28;19952;-90
2023/03/08 06:12:17;;;;;;;;;;;3.70;90.80;;;;;;5032863;28;19943;-89
2023/03/08 06:14:42;;;;;;;;;;;3.70;90.70;;;;;;5032819;28;19939;-91
2023/03/08 06:17:08;;;;;;;;;;;3.60;90.40;;;;;;5032813;28;19951;-89
2023/03/08 06:19:33;;;;;;;;;;;3.60;91.10;;;;;;5032778;28;19999;-89
2023/03/08 06:21:59;;;;;;;;;;;3.80;91.20;;;;;;5046101;28;19968;-89
2023/03/08 06:24:24;;;;;;;;;;;3.80;90.90;;;;;;5052656;28;19944;-90
2023/03/08 06:26:50;;;;;;;;;;;3.70;91.30;;;;;;5046371;28;19978;-89
2023/03/08 06:29:15;;;;;;;;;;;3.80;91.30;;;;;;5047745;28;20020;-89
2023/03/08 06:31:41;;;;;;;;;;;3.90;91.30;;;;;;5044942;28;20362;-90
2023/03/08 06:34:07;;;;;;;;;;;3.90;91.60;;;;;;5046018;28;20105;-89
2023/03/08 06:36:32;;;;;;;;;;;3.80;90.90;;;;;;5048422;28;19977;-89
2023/03/08 06:38:58;;;;;;;;;;;3.70;91.10;;;;;;5046309;28;20008;-90
2023/03/08 06:41:24;;;;;;;;;;;3.70;91.50;;;;;;5051593;28;19953;-90
2023/03/08 06:43:50;;;;;;;;;;;3.80;92.20;;;;;;5051438;28;19945;-90
2023/03/08 06:46:16;;;;;;;;;;;4.10;92.40;;;;;;5053303;28;20313;-89
2023/03/08 06:48:42;;;;;;;;;;;4.30;92.20;;;;;;5050602;28;19967;-89
2023/03/08 06:51:08;;;;;;;;;;;4.40;91.70;;;;;;5051706;28;19943;-89
2023/03/08 06:53:37;;;;;;;;;;;4.40;91.50;;;;;;5050738;28;20037;-89
2023/03/08 06:56:03;;;;;;;;;;;4.50;91.40;;;;;;5040392;28;19957;-89
2023/03/08 06:58:28;;;;;;;;;;;4.60;91.20;;;;;;5044683;28;20109;-88
2023/03/08 07:00:54;;;;;;;;;;;4.80;90.50;;;;;;5047544;28;20028;-89
2023/03/08 07:03:20;;;;;;;;;;;4.90;89.80;;;;;;5063678;22;20040;-88
2023/03/08 07:05:45;;;;;;;;;;;4.90;89.70;;;;;;5043910;28;19966;-89
2023/03/08 07:08:11;;;;;;;;;;;4.90;89.50;;;;;;5068149;28;19940;-89
2023/03/08 07:10:36;;;;;;;;;;;5.00;89.70;;;;;;5061667;28;19950;-88
2023/03/08 07:13:02;;;;;;;;;;;5.10;89.80;;;;;;5043001;28;19940;-89
2023/03/08 07:15:28;;;;;;;;;;;5.20;89.90;;;;;;5063827;28;19941;-88
2023/03/08 07:17:54;;;;;;;;;;;5.20;90.00;;;;;;5063686;28;20314;-89
2023/03/08 07:20:20;;;;;;;;;;;5.30;89.50;;;;;;5061705;28;20119;-89
2023/03/08 07:22:46;;;;;;;;;;;5.30;89.80;;;;;;5061770;28;20425;-89
2023/03/08 07:25:13;;;;;;;;;;;5.40;90.10;;;;;;5065518;28;19945;-88
2023/03/08 07:27:38;;;;;;;;;;;5.60;90.40;;;;;;5066324;28;19947;-89
2023/03/08 07:30:04;;;;;;;;;;;5.70;90.60;;;;;;5068087;28;20415;-89
2023/03/08 07:32:30;;;;;;;;;;;5.90;90.50;;;;;;5067995;28;19954;-89
2023/03/08 07:34:56;;;;;;;;;;;6.10;90.30;;;;;;5067590;28;20395;-90
2023/03/08 07:37:22;;;;;;;;;;;6.20;89.80;;;;;;5067427;28;19958;-89
2023/03/08 07:39:47;;;;;;;;;;;6.50;89.50;;;;;;5061098;28;19947;-89
2023/03/08 07:42:13;;;;;;;;;;;6.50;89.20;;;;;;5067201;28;19943;-88
2023/03/08 07:44:38;;;;;;;;;;;6.50;88.90;;;;;;5065072;28;19945;-89
2023/03/08 07:47:05;;;;;;;;;;;6.50;89.00;;;;;;5061828;28;20717;-88
2023/03/08 07:49:31;;;;;;;;;;;6.70;89.20;;;;;;5068376;28;19992;-90
2023/03/08 07:51:56;;;;;;;;;;;6.90;89.30;;;;;;5064627;28;19948;-89
2023/03/08 07:54:22;;;;;;;;;;;7.30;88.20;;;;;;5051261;28;20294;-88
2023/03/08 07:56:47;;;;;;;;;;;7.50;87.70;;;;;;5063626;28;19968;-88
2023/03/08 07:59:13;;;;;;;;;;;7.50;86.20;;;;;;5071016;28;19956;-88
2023/03/08 08:01:39;;;;;;;;;;;7.50;86.90;;;;;;5068059;28;19955;-88
2023/03/08 08:04:06;;;;;;;;;;;7.50;87.00;;;;;;5067747;28;20019;-89
2023/03/08 08:06:33;;;;;;;;;;;7.50;86.90;;;;;;5073253;28;20323;-89
2023/03/08 08:08:59;;;;;;;;;;;7.60;87.00;;;;;;5066809;28;20352;-88
2023/03/08 08:11:24;;;;;;;;;;;7.60;87.00;;;;;;5070593;28;19948;-89
2023/03/08 08:13:50;;;;;;;;;;;7.60;87.50;;;;;;5053581;28;19945;-88
2023/03/08 08:16:16;;;;;;;;;;;7.60;87.40;;;;;;5070737;28;19954;-89
2023/03/08 08:18:41;;;;;;;;;;;7.70;87.60;;;;;;5068161;28;19958;-89
2023/03/08 08:21:09;;;;;;;;;;;7.80;87.90;;;;;;5068084;28;19939;-89
2023/03/08 08:23:35;;;;;;;;;;;8.10;88.00;;;;;;5067360;28;20367;-89
2023/03/08 08:26:03;;;;;;;;;;;8.30;88.00;;;;;;5068837;28;19944;-89
2023/03/08 08:28:29;;;;;;;;;;;8.50;87.90;;;;;;5066555;28;20015;-89
2023/03/08 08:30:59;;;;;;;;;;;8.90;86.80;;;;;;5064834;28;20473;-88
2023/03/08 08:33:24;;;;;;;;;;;9.20;85.40;;;;;;5053113;28;19949;-88
2023/03/08 08:35:50;;;;;;;;;;;9.40;84.10;;;;;;5065910;28;20040;-89
2023/03/08 08:38:15;;;;;;;;;;;9.40;83.20;;;;;;5066984;28;19956;-88
2023/03/08 08:40:41;;;;;;;;;;;9.40;83.30;;;;;;5070023;28;20031;-88
2023/03/08 08:43:06;;;;;;;;;;;9.50;83.20;;;;;;5062194;28;19950;-88
2023/03/08 08:45:32;;;;;;;;;;;9.60;83.40;;;;;;5049015;28;19949;-88
2023/03/08 08:47:57;;;;;;;;;;;9.60;83.60;;;;;;5052032;28;19944;-89
2023/03/08 08:50:23;;;;;;;;;;;9.60;83.50;;;;;;5065831;28;20003;-89
2023/03/08 08:52:48;;;;;;;;;;;9.80;83.70;;;;;;5065823;28;19979;-90
2023/03/08 08:55:14;;;;;;;;;;;9.90;83.80;;;;;;5069036;28;20417;-89
2023/03/08 08:57:40;;;;;;;;;;;10.10;84.00;;;;;;5067343;28;20372;-90
2023/03/08 09:00:08;;;;;;;;;;;10.30;84.30;;;;;;5059463;28;19962;-90
2023/03/08 09:02:34;;;;;;;;;;;10.40;83.90;;;;;;5066749;28;20407;-90
2023/03/08 09:05:00;;;;;;;;;;;10.60;83.50;;;;;;5049750;28;19967;-91
2023/03/08 09:07:25;;;;;;;;;;;10.60;83.20;;;;;;5064710;28;19961;-90
2023/03/08 09:09:52;;;;;;;;;;;10.70;83.30;;;;;;5063560;28;19943;-90
2023/03/08 09:12:19;;;;;;;;;;;10.80;82.90;;;;;;5069281;28;20034;-90
2023/03/08 09:14:45;;;;;;;;;;;11.00;83.00;;;;;;5068846;28;19942;-90
2023/03/08 09:17:11;;;;;;;;;;;11.30;82.00;;;;;;5065376;28;20550;-90
2023/03/08 09:19:36;;;;;;;;;;;11.40;80.30;;;;;;5064143;28;19972;-89
2023/03/08 09:22:02;;;;;;;;;;;11.40;80.90;;;;;;5067933;28;19943;-89
2023/03/08 09:24:28;;;;;;;;;;;11.50;80.20;;;;;;5063762;28;19947;-88
2023/03/08 09:26:53;;;;;;;;;;;11.50;80.30;;;;;;5072773;28;20040;-88
2023/03/08 09:29:19;;;;;;;;;;;11.50;80.40;;;;;;5065305;28;20045;-89
2023/03/08 09:31:44;;;;;;;;;;;11.50;81.00;;;;;;5067037;28;20039;-90
2023/03/08 09:34:14;;;;;;;;;;;11.60;81.40;;;;;;5067500;28;19946;-90
2023/03/08 09:36:40;;;;;;;;;;;11.70;81.00;;;;;;5071704;28;19959;-90
2023/03/08 09:39:07;;;;;;;;;;;11.80;80.00;;;;;;5068700;28;19972;-89
2023/03/08 09:41:39;;;;;;;;;;;12.00;80.10;;;;;;5047335;28;20296;-90
2023/03/08 09:44:23;;;;;;;;;;;12.20;79.00;;;;;;5071373;28;19941;-90
2023/03/08 09:46:54;;;;;;;;;;;12.40;77.40;;;;;;5065567;28;19945;-89
2023/03/08 09:49:30;;;;;;;;;;;12.50;77.40;;;;;;5068043;28;19948;-90
2023/03/08 09:52:16;;;;;;;;;;;12.70;77.00;;;;;;5068264;28;19976;-89
2023/03/08 09:54:41;;;;;;;;;;;12.90;77.10;;;;;;5066331;28;19955;-89
2023/03/08 09:57:13;;;;;;;;;;;12.90;75.70;;;;;;5062984;28;20357;-88
2023/03/08 10:00:10;;;;;;;;;;;12.90;74.70;;;;;;5066565;28;19967;-89
2023/03/08 10:02:54;;;;;;;;;;;12.90;74.40;;;;;;5057323;28;19945;-88
2023/03/08 10:05:28;;;;;;;;;;;13.00;74.50;;;;;;5068852;28;19952;-90
2023/03/08 10:07:57;;;;;;;;;;;13.40;73.60;;;;;;5066793;28;20070;-90
2023/03/08 10:10:25;;;;;;;;;;;13.50;72.00;;;;;;5051433;28;21151;-89
2023/03/08 10:13:11;;;;;;;;;;;13.70;71.10;;;;;;5066688;28;20286;-89
2023/03/08 10:15:42;;;;;;;;;;;13.70;70.90;;;;;;5064596;28;19971;-90
2023/03/08 10:18:22;;;;;;;;;;;13.70;70.80;;;;;;5069638;28;20002;-89
2023/03/08 10:20:48;;;;;;;;;;;13.80;71.20;;;;;;5070380;28;19955;-89
2023/03/08 10:23:15;;;;;;;;;;;13.80;70.20;;;;;;5072029;28;20347;-90
2023/03/08 10:25:40;;;;;;;;;;;14.10;68.90;;;;;;5073746;28;19945;-90
2023/03/08 10:28:14;;;;;;;;;;;14.20;68.20;;;;;;5067780;28;19970;-89
2023/03/08 10:30:41;;;;;;;;;;;14.30;68.00;;;;;;5071396;28;20383;-89
2023/03/08 10:33:09;;;;;;;;;;;14.40;67.20;;;;;;5070518;28;19989;-88
2023/03/08 10:35:36;;;;;;;;;;;14.40;66.40;;;;;;5072251;28;19949;-89
2023/03/08 10:38:13;;;;;;;;;;;14.40;67.10;;;;;;5054644;28;20319;-89
2023/03/08 10:40:39;;;;;;;;;;;14.40;67.50;;;;;;5053501;28;19957;-89
2023/03/08 10:43:05;;;;;;;;;;;14.50;67.80;;;;;;5055564;28;20031;-89
2023/03/08 10:45:32;;;;;;;;;;;14.60;66.70;;;;;;5073411;28;20056;-89
2023/03/08 10:47:59;;;;;;;;;;;14.70;66.40;;;;;;5070760;28;20419;-89
2023/03/08 10:50:29;;;;;;;;;;;14.60;65.70;;;;;;5071049;28;19966;-89
2023/03/08 10:52:54;;;;;;;;;;;14.50;66.20;;;;;;5069527;28;19987;-90
2023/03/08 10:55:21;;;;;;;;;;;14.60;66.10;;;;;;5074110;28;20303;-90
2023/03/08 10:57:48;;;;;;;;;;;14.90;64.90;;;;;;5065298;28;19961;-90
2023/03/08 11:00:23;;;;;;;;;;;14.90;64.00;;;;;;5069234;28;20336;-90
2023/03/08 11:02:49;;;;;;;;;;;14.80;64.30;;;;;;5059951;28;19941;-90
2023/03/08 11:05:19;;;;;;;;;;;14.70;64.00;;;;;;5070139;28;20000;-89
2023/03/08 11:07:52;;;;;;;;;;;14.80;63.80;;;;;;5072332;28;19957;-89
2023/03/08 11:10:19;;;;;;;;;;;14.90;63.40;;;;;;5073662;28;19957;-89
2023/03/08 11:12:44;;;;;;;;;;;14.60;63.80;;;;;;5075134;28;20051;-88
2023/03/08 11:15:13;;;;;;;;;;;14.70;64.50;;;;;;5068936;28;20047;-88
2023/03/08 11:17:43;;;;;;;;;;;14.80;64.40;;;;;;5073628;28;20364;-89
2023/03/08 11:20:17;;;;;;;;;;;14.90;65.40;;;;;;5073762;28;19966;-89
2023/03/08 11:22:52;;;;;;;;;;;15.30;64.20;;;;;;5065327;28;20003;-89
2023/03/08 11:25:32;;;;;;;;;;;15.60;61.40;;;;;;5048171;28;19984;-90
2023/03/08 11:28:15;;;;;;;;;;;15.90;61.50;;;;;;5075378;28;19985;-89
2023/03/08 11:30:59;;;;;;;;;;;16.00;61.10;;;;;;5069388;28;19952;-90
2023/03/08 11:33:31;;;;;;;;;;;16.40;60.60;;;;;;5073444;28;20045;-90
2023/03/08 11:35:56;;;;;;;;;;;16.70;59.10;;;;;;5068861;28;20003;-90
2023/03/08 11:38:30;;;;;;;;;;;16.70;58.30;;;;;;5065989;28;20437;-90
2023/03/08 11:41:08;;;;;;;;;;;16.90;58.50;;;;;;5054082;28;20109;-90
2023/03/08 11:43:52;;;;;;;;;;;16.90;59.90;;;;;;5071893;28;19944;-90
2023/03/08 11:46:23;;;;;;;;;;;17.00;59.70;;;;;;5074356;28;19952;-90
2023/03/08 11:49:10;;;;;;;;;;;17.40;55.80;;;;;;5074152;28;20013;-90
2023/03/08 11:51:47;;;;;;;;;;;17.70;55.10;;;;;;5073711;28;19985;-89
2023/03/08 11:54:13;;;;;;;;;;;17.40;54.80;;;;;;5054899;28;20393;-89
2023/03/08 11:56:38;;;;;;;;;;;16.30;57.20;;;;;;5073335;28;19995;-89
2023/03/08 11:59:17;;;;;;;;;;;16.10;58.80;;;;;;5073934;28;19963;-89
2023/03/08 12:01:58;;;;;;;;;;;15.80;58.40;;;;;;5072789;28;20014;-89
2023/03/08 12:04:27;;;;;;;;;;;15.90;59.20;;;;;;5073793;28;19998;-89
2023/03/08 12:06:53;;;;;;;;;;;16.50;57.80;;;;;;5071421;28;20002;-90
2023/03/08 12:09:19;;;;;;;;;;;16.90;56.70;;;;;;5071364;28;20056;-90
2023/03/08 12:12:00;;;;;;;;;;;17.00;55.90;;;;;;5068691;28;20492;-89
2023/03/08 12:14:29;;;;;;;;;;;17.30;54.30;;;;;;5072035;28;19943;-89
2023/03/08 12:16:59;;;;;;;;;;;17.60;54.10;;;;;;5071345;28;19942;-90
2023/03/08 12:19:35;;;;;;;;;;;17.70;53.60;;;;;;5068829;28;20010;-90
2023/03/08 12:22:01;;;;;;;;;;;17.90;53.50;;;;;;5074495;28;20041;-89
2023/03/08 12:24:32;;;;;;;;;;;18.40;52.00;;;;;;5067573;28;19988;-89
2023/03/08 12:27:04;;;;;;;;;;;18.70;50.80;;;;;;5071449;28;19961;-89
2023/03/08 12:29:36;;;;;;;;;;;18.80;50.70;;;;;;5065092;28;19940;-89
2023/03/08 12:32:02;;;;;;;;;;;18.30;51.20;;;;;;5046487;28;19982;-89
2023/03/08 12:34:34;;;;;;;;;;;18.40;50.90;;;;;;5063804;28;19985;-89
2023/03/08 12:37:00;;;;;;;;;;;18.30;51.50;;;;;;5067359;28;20310;-89
2023/03/08 12:39:28;;;;;;;;;;;18.60;50.50;;;;;;5068199;28;19956;-90
2023/03/08 12:41:57;;;;;;;;;;;19.20;49.10;;;;;;5047772;28;19939;-89
2023/03/08 12:44:24;;;;;;;;;;;19.70;48.10;;;;;;5065545;28;19948;-89
2023/03/08 12:46:51;;;;;;;;;;;19.90;48.40;;;;;;5070205;28;19950;-89
2023/03/08 12:49:29;;;;;;;;;;;20.50;47.60;;;;;;5048815;28;20292;-89
2023/03/08 12:51:59;;;;;;;;;;;20.70;46.10;;;;;;5068225;28;19957;-89
2023/03/08 12:54:26;;;;;;;;;;;21.00;44.50;;;;;;5065265;28;20902;-89
2023/03/08 12:56:54;;;;;;;;;;;21.40;44.20;;;;;;5065593;28;20315;-90
2023/03/08 12:59:19;;;;;;;;;;;21.50;43.70;;;;;;5067919;28;20011;-89
2023/03/08 13:01:57;;;;;;;;;;;20.90;44.10;;;;;;5068175;28;20403;-89
2023/03/08 13:04:29;;;;;;;;;;;20.80;45.80;;;;;;5066845;28;19971;-89
2023/03/08 13:06:54;;;;;;;;;;;20.60;44.50;;;;;;5065444;28;19954;-89
2023/03/08 13:09:23;;;;;;;;;;;20.40;47.50;;;;;;5061494;28;20366;-90
2023/03/08 13:12:09;;;;;;;;;;;20.60;46.00;;;;;;5067247;28;19952;-89
2023/03/08 13:14:41;;;;;;;;;;;20.00;46.80;;;;;;5064597;28;19939;-89
2023/03/08 13:17:25;;;;;;;;;;;19.40;48.10;;;;;;5064337;28;19996;-89
2023/03/08 13:19:51;;;;;;;;;;;18.80;51.40;;;;;;5064369;28;19968;-89
2023/03/08 13:22:51;;;;;;;;;;;18.40;51.10;;;;;;5066490;28;20370;-89
2023/03/08 13:25:36;;;;;;;;;;;17.60;53.30;;;;;;4988613;28;19984;-89
2023/03/08 13:28:04;;;;;;;;;;;17.00;54.10;;;;;;5058244;28;19946;-89
2023/03/08 13:30:34;;;;;;;;;;;16.70;56.60;;;;;;5052712;28;20031;-89
2023/03/08 13:33:00;;;;;;;;;;;16.60;56.60;;;;;;5067544;28;19950;-89
2023/03/08 13:35:26;;;;;;;;;;;16.70;57.40;;;;;;5063243;28;19958;-90
2023/03/08 13:37:57;;;;;;;;;;;17.40;54.50;;;;;;5045894;28;20329;-89
2023/03/08 13:40:23;;;;;;;;;;;18.40;52.30;;;;;;5067850;28;20427;-90
2023/03/08 13:43:04;;;;;;;;;;;19.30;50.70;;;;;;5067490;28;19949;-90
2023/03/08 13:45:29;;;;;;;;;;;20.30;47.60;;;;;;5053598;28;20042;-90
2023/03/08 13:47:56;;;;;;;;;;;21.00;44.70;;;;;;5070289;28;20090;-89
2023/03/08 13:50:27;;;;;;;;;;;21.70;44.00;;;;;;5063869;28;19948;-90
2023/03/08 13:52:53;;;;;;;;;;;21.50;42.70;;;;;;5062476;28;20044;-89
2023/03/08 13:55:20;;;;;;;;;;;21.70;43.60;;;;;;5066047;28;20481;-90
2023/03/08 13:57:47;;;;;;;;;;;22.30;41.60;;;;;;5069503;28;19953;-89
2023/03/08 14:00:22;;;;;;;;;;;22.80;40.30;;;;;;5048889;28;19959;-90
2023/03/08 14:02:48;;;;;;;;;;;22.70;39.90;;;;;;5067693;28;20437;-89
2023/03/08 14:05:15;;;;;;;;;;;23.30;40.10;;;;;;5068578;28;20003;-90
2023/03/08 14:07:41;;;;;;;;;;;24.00;38.40;;;;;;5061518;28;19952;-89
2023/03/08 14:10:11;;;;;;;;;;;23.00;39.40;;;;;;5058313;28;20391;-89
2023/03/08 14:12:37;;;;;;;;;;;22.90;40.80;;;;;;5065685;28;19958;-89
2023/03/08 14:15:03;;;;;;;;;;;23.00;39.80;;;;;;5049073;28;19970;-90
2023/03/08 14:17:29;;;;;;;;;;;23.00;39.50;;;;;;5065318;28;19940;-89
2023/03/08 14:19:56;;;;;;;;;;;23.00;40.60;;;;;;5060968;28;20112;-89
2023/03/08 14:22:22;;;;;;;;;;;22.80;41.60;;;;;;5070741;28;20487;-89
2023/03/08 14:24:55;;;;;;;;;;;22.40;40.80;;;;;;5069120;28;19948;-90
2023/03/08 14:27:21;;;;;;;;;;;21.60;43.40;;;;;;5063983;28;19940;-89
2023/03/08 14:29:46;;;;;;;;;;;20.80;43.60;;;;;;5071094;28;20133;-90